Madeira Beach, Florida
Current Conditions -  °F | °C
As of 5:53 AM on Thursday 23 Oct 2014 (Local Time) from KSPG Reporting Station
Broken Clouds Broken Clouds  
Wind Chill: 70°   Ceiling: 3100
Heat Index: 70°   Visibility: 10mi
Dew Point: 59°   Wind: 18mph
Humidity: 68%   Direction: 60°ENE
Pressure: 29.95"   Gusts: NA
Location:  27.7976°N, 82.7976°W
Report Text: KSPG 230953Z AUTO 06016KT 10SM BKN031 21/15 A2995 RMK AO2 SLP143 T02110150
Loading
Personal Weather Stations






























Interactive Weather Map
Tropical Storm Tracking
New forecast layout! Learn more

10-Day Weather Forecast

Advertisements
Track Severe Weather on mobile